Lisbon, NH (03585)

9:40 PM EST on January 26, 2015 (GMT -0500)
Sugar Hill | Change Station
CLOSE
Current Station
Personal Weather Station
Location: Sugar Hill, NH
Elevation: 900 ft
Nearby Weather Stations
Active Advisory: Winter Storm Warning

Elev 900 ft 44.22 °N, 71.80 °W | Updated 7 minutes ago

Overcast
Overcast
13.3 °F
Feels Like 13 °F
N
0.0
Wind Variable Wind from NNW

Today
High -- | Low -- °F
--% Chance of Precip.
Yesterday
High -- | Low -- °F
Precip. -- in
7:11 AM 4:48 PM
Waxing Crescent, 49% visible
Pressure 30.16 in
Visibility 10.0 miles
Clouds Overcast 9000 ft
Windchill 13 °F
Dew Point 5 °F
Humidity 70%
Rainfall 0.00 in
Snow Depth Not available.
UV 0 out of 12
Pollen .10 out of 12
Air Quality Not available.
Flu Activity Not available.
METAR KHIE 270152Z AUTO 09010KT 10SM OVC090 M09/M22 A3007 RMK AO2 SLP212 T10941222

More Conditions Fewer Conditions

Pressure 30.16 in
Visibility 10.0 miles
Clouds Overcast 9000 ft
Windchill 13 °F
Dew Point 5 °F
Humidity 70%
Rainfall 0.00 in
Snow Depth Not available.
UV 0 out of 12
Pollen .10 out of 12
Air Quality Not available.
Flu Activity Not available.
METAR KHIE 270152Z AUTO 09010KT 10SM OVC090 M09/M22 A3007 RMK AO2 SLP212 T10941222

More Conditions Fewer Conditions

10-Day Weather Forecast

Almanac

Astronomy

Jan. 26, 2015 Rise Set
Actual Time
Civil Twilight
Nautical Twilight
Astronomical Twilight
Moon
Length of Visible Light
Length of Day
Tomorrow will be .
, % of the Moon is Illuminated

Today's Extremes

State Highs State Lows

Community

WunderPhotos

Upload Photos

1,790,478 photos uploaded!

WunderBlogs® & News

Nearby

Air Quality

  Air Quality AQ Index Pollutant
Not available.

Snow Depth

Station Depth Elevation

Earthquake Activity

City Distance Mag. Time & Date
Minimum magnitude displayed is 2.5.

Coastal Water Temperatures

Place Temperature

Nearby Weather Stations